Time;durP1;ratioP1;P1;durP2;ratioP2;P2;SDS_P1;SDS_P2;PMS_P1;PMS_P2;Temp;Humidity;BMP_temperature;BMP_pressure;BME280_temperature;BME280_humidity;BME280_pressure;Samples;Min_cycle;Max_cycle;Signal;HPM_P1;HPM_P2
2023/01/16 00:01:49;;;;;;;;;0.00;0.00;;;;;10.17;69.37;-19482.13;4949025;28;46019;-85
2023/01/16 00:04:14;;;;;;;;;0.00;0.00;;;;;10.22;69.29;-19483.50;4949357;28;45831;-85
2023/01/16 00:06:40;;;;;;;;;0.00;0.00;;;;;10.21;69.74;-19483.34;4941710;28;45405;-85
2023/01/16 00:09:06;;;;;;;;;0.67;0.00;;;;;10.29;69.41;-19485.50;4927775;28;45592;-85
2023/01/16 00:11:32;;;;;;;;;1.67;0.33;;;;;9.10;69.41;-19454.06;4921124;28;48235;-85
2023/01/16 00:13:58;;;;;;;;;1.00;1.00;;;;;10.06;69.10;-19479.44;4937950;28;45319;-85
2023/01/16 00:16:24;;;;;;;;;0.00;0.00;;;;;8.58;69.25;-19440.41;4950968;28;45576;-85
2023/01/16 00:18:49;;;;;;;;;2.00;0.00;;;;;9.98;69.26;-19477.28;4935376;28;45941;-85
2023/01/16 00:21:15;;;;;;;;;0.67;0.00;;;;;9.74;69.38;-19470.94;4940892;28;45802;-85
2023/01/16 00:23:40;;;;;;;;;1.00;0.67;;;;;9.43;69.30;-19462.84;4920283;28;45715;-84
2023/01/16 00:26:12;;;;;;;;;2.00;1.00;;;;;9.80;69.31;-19472.41;4954354;28;45716;-85
2023/01/16 00:28:39;;;;;;;;;2.33;0.00;;;;;10.10;69.38;-19480.53;4950198;28;45389;-85
2023/01/16 00:31:05;;;;;;;;;0.00;0.00;;;;;9.85;69.49;-19473.78;4955592;28;45650;-84
2023/01/16 00:33:32;;;;;;;;;0.00;0.00;;;;;10.06;69.35;-19479.44;4955354;28;45579;-85
2023/01/16 00:35:57;;;;;;;;;0.67;0.00;;;;;9.97;69.53;-19476.88;4944132;28;45515;-85
2023/01/16 00:38:22;;;;;;;;;0.00;0.00;;;;;10.01;69.33;-19478.09;4944264;28;45437;-89
2023/01/16 00:40:48;;;;;;;;;0.00;0.00;;;;;10.08;69.58;-19479.84;4945289;28;45524;-89
2023/01/16 00:43:13;;;;;;;;;2.00;0.00;;;;;9.56;69.68;-19466.22;4952552;28;45473;-88
2023/01/16 00:45:39;;;;;;;;;1.00;1.00;;;;;9.57;69.71;-19466.34;4951584;28;45645;-89
2023/01/16 00:48:05;;;;;;;;;1.00;0.00;;;;;10.18;69.75;-19482.53;4940187;28;45477;-88
2023/01/16 00:50:32;;;;;;;;;0.00;0.00;;;;;10.08;70.22;-19479.84;4940673;28;45551;-88
2023/01/16 00:52:57;;;;;;;;;1.67;1.00;;;;;9.86;70.23;-19476.13;4923011;28;45361;-88
2023/01/16 00:55:23;;;;;;;;;0.00;0.00;;;;;10.20;70.24;-19484.88;4928508;28;45897;-88
2023/01/16 00:57:48;;;;;;;;;0.00;0.00;;;;;10.00;69.93;-19479.75;4925136;28;45798;-88
2023/01/16 01:00:14;;;;;;;;;1.33;0.00;;;;;9.61;69.96;-19469.50;4923301;28;46059;-89
2023/01/16 01:02:39;;;;;;;;;0.00;0.00;;;;;9.69;69.81;-19471.53;4920259;28;45538;-88
2023/01/16 01:05:06;;;;;;;;;0.00;0.00;;;;;9.17;70.19;-19457.75;4930022;28;45462;-88
2023/01/16 01:07:32;;;;;;;;;0.00;0.00;;;;;9.96;70.04;-19478.69;4929312;28;45456;-87
2023/01/16 01:09:57;;;;;;;;;0.00;0.00;;;;;10.13;70.31;-19483.25;4919991;28;46313;-87
2023/01/16 01:12:22;;;;;;;;;0.67;0.67;;;;;10.16;69.91;-19483.94;4919683;28;45469;-88
2023/01/16 01:14:48;;;;;;;;;0.00;0.00;;;;;10.15;70.19;-19483.66;4925291;28;45713;-88
2023/01/16 01:17:13;;;;;;;;;1.00;1.00;;;;;9.24;70.08;-19459.63;4903586;28;45460;-88
2023/01/16 01:19:38;;;;;;;;;0.00;0.00;;;;;10.16;70.22;-19483.94;4922600;28;46500;-89
2023/01/16 01:22:04;;;;;;;;;1.67;0.00;;;;;10.04;70.28;-19480.84;4939304;28;45365;-88
2023/01/16 01:24:29;;;;;;;;;0.00;0.00;;;;;10.05;70.33;-19481.09;4920803;28;45450;-88
2023/01/16 01:26:55;;;;;;;;;0.00;0.00;;;;;10.03;70.41;-19480.44;4921683;28;45376;-88
2023/01/16 01:29:20;;;;;;;;;0.00;0.00;;;;;10.10;70.57;-19482.47;4919988;28;45361;-88
2023/01/16 01:31:45;;;;;;;;;0.00;0.00;;;;;9.39;70.25;-19463.69;4921441;28;45399;-87
2023/01/16 01:34:11;;;;;;;;;0.67;0.33;;;;;9.57;70.65;-19468.41;4939097;28;45572;-87
2023/01/16 01:36:36;;;;;;;;;0.00;0.00;;;;;9.56;70.89;-19468.00;4933398;28;45578;-88
2023/01/16 01:39:02;;;;;;;;;1.00;0.00;;;;;10.13;71.41;-19483.25;4920582;28;45469;-88
2023/01/16 01:41:27;;;;;;;;;1.00;0.00;;;;;9.16;71.88;-19457.63;4919684;28;45374;-88
2023/01/16 01:43:55;;;;;;;;;0.00;0.00;;;;;9.35;71.92;-19462.59;4910236;28;45485;-88
2023/01/16 01:46:36;;;;;;;;;2.00;0.00;;;;;10.08;72.99;-19481.78;4922711;28;45461;-88
2023/01/16 01:49:10;;;;;;;;;1.00;0.00;;;;;10.13;73.25;-19483.25;4902044;28;47439;-88
2023/01/16 01:51:41;;;;;;;;;0.00;0.00;;;;;10.11;73.74;-19482.72;4919695;28;45507;-88
2023/01/16 01:54:11;;;;;;;;;2.00;0.00;;;;;9.00;74.06;-19453.41;4924516;28;45500;-88
2023/01/16 01:56:48;;;;;;;;;0.00;0.00;;;;;8.31;74.00;-19435.03;4939264;28;45445;-88
2023/01/16 01:59:20;;;;;;;;;0.00;0.00;;;;;9.88;74.62;-19476.50;4942951;28;46355;-88
2023/01/16 02:01:45;;;;;;;;;0.00;0.00;;;;;9.48;76.20;-19465.97;4939984;28;45401;-88
2023/01/16 02:04:22;;;;;;;;;0.00;0.00;;;;;9.73;77.02;-19472.72;4957923;28;45861;-88
2023/01/16 02:06:56;;;;;;;;;4.33;0.00;;;;;9.17;77.72;-19457.88;4958351;28;45666;-87
2023/01/16 02:09:24;;;;;;;;;3.00;0.00;;;;;9.54;78.49;-19467.59;4943771;28;47664;-88
2023/01/16 02:12:00;;;;;;;;;0.00;0.00;;;;;9.35;82.97;-19462.59;4940022;28;46246;-88
2023/01/16 02:14:28;;;;;;;;;0.00;0.00;;;;;8.83;84.63;-19448.81;4957148;28;45529;-88
2023/01/16 02:19:51;;;;;;;;;1.00;0.00;;;;;8.92;93.21;4923.38;4941334;28;45831;-88
2023/01/16 02:22:34;;;;;;;;;0.00;0.00;;;;;8.84;95.52;14821.22;4940192;28;46311;-88
2023/01/16 02:25:25;;;;;;;;;1.00;0.00;;;;;8.75;95.23;14121.72;4957082;28;45448;-88
2023/01/16 02:27:54;;;;;;;;;0.00;0.00;;;;;8.59;96.07;16764.41;4957842;28;45493;-88
2023/01/16 02:30:47;;;;;;;;;0.00;0.00;;;;;8.58;96.82;21742.94;4939810;28;47030;-88
2023/01/16 02:33:45;;;;;;;;;0.00;0.00;;;;;8.19;95.21;16286.22;4949903;28;45511;-88
2023/01/16 02:36:10;;;;;;;;;0.00;0.00;;;;;8.41;95.08;14574.94;4938559;28;45446;-88
2023/01/16 02:39:05;;;;;;;;;1.00;0.00;;;;;8.39;97.21;21813.47;4921202;28;45579;-88
2023/01/16 02:41:42;;;;;;;;;0.00;0.00;;;;;8.34;97.46;24788.16;4856727;29;46491;-88
2023/01/16 02:44:14;;;;;;;;;0.00;0.00;;;;;8.28;98.62;27031.63;4855738;29;45468;-88
2023/01/16 02:47:05;;;;;;;;;0.00;0.00;;;;;7.75;100.00;32358.97;4841828;29;45536;-88
2023/01/16 02:49:43;;;;;;;;;0.00;0.00;;;;;8.29;98.46;25603.97;4859971;29;45579;-88
2023/01/16 02:52:11;;;;;;;;;0.00;0.00;;;;;8.36;100.00;29288.38;4840740;29;46165;-88
2023/01/16 02:54:46;;;;;;;;;0.00;0.00;;;;;8.03;99.75;28059.16;4840758;29;45537;-88
2023/01/16 02:57:23;;;;;;;;;0.00;0.00;;;;;7.66;100.00;31122.84;4852869;29;45563;-88
2023/01/16 02:59:49;;;;;;;;;0.00;0.00;;;;;7.94;97.14;19605.41;4842461;29;45708;-88
2023/01/16 03:02:15;;;;;;;;;0.00;0.00;;;;;7.88;95.23;13412.44;4847879;29;47220;-88
2023/01/16 03:04:45;;;;;;;;;0.00;0.00;;;;;8.55;95.25;12058.28;4845476;29;45455;-88
2023/01/16 03:07:44;;;;;;;;;0.00;0.00;;;;;8.58;94.44;9745.09;4847274;29;45408;-88
2023/01/16 03:10:31;;;;;;;;;0.00;0.00;;;;;7.94;93.68;7585.03;4833054;29;45718;-88
2023/01/16 03:12:59;;;;;;;;;1.00;0.00;;;;;8.58;93.21;4610.56;4840259;29;46565;-89
2023/01/16 03:15:38;;;;;;;;;0.00;0.00;;;;;8.48;92.81;3266.63;4844405;29;45955;-88
2023/01/16 03:18:28;;;;;;;;;0.00;0.00;;;;;8.49;92.08;1598.13;4875012;28;45388;-88
2023/01/16 03:21:25;;;;;;;;;1.00;1.00;;;;;8.66;92.77;2973.03;4946452;28;45537;-88
2023/01/16 03:24:08;;;;;;;;;0.00;0.00;;;;;8.56;93.16;4669.94;4945855;28;46391;-88
2023/01/16 03:26:43;;;;;;;;;0.00;0.00;;;;;7.70;92.09;-453.59;4956363;28;45499;-88
2023/01/16 03:29:27;;;;;;;;;0.00;0.00;;;;;8.45;94.40;5661.53;4956891;28;45468;-87
2023/01/16 03:32:07;;;;;;;;;0.00;0.00;;;;;8.00;94.19;7596.53;4953738;28;45441;-88
2023/01/16 03:34:41;;;;;;;;;1.00;0.00;;;;;8.45;94.86;8502.00;4924995;28;46399;-88
2023/01/16 03:37:16;;;;;;;;;0.00;0.00;;;;;7.28;93.85;7436.50;4948914;28;45381;-88
2023/01/16 03:39:46;;;;;;;;;0.00;0.00;;;;;8.45;94.47;8572.06;4949409;28;45349;-87
2023/01/16 03:42:22;;;;;;;;;0.00;0.00;;;;;8.46;93.78;6478.56;4944002;28;45524;-88
2023/01/16 03:44:53;;;;;;;;;1.67;0.00;;;;;7.71;92.79;2785.22;4919601;28;46508;-88
2023/01/16 03:47:25;;;;;;;;;0.00;0.00;;;;;8.17;92.21;782.94;4948966;28;45436;-88
2023/01/16 03:49:56;;;;;;;;;0.00;0.00;;;;;7.87;92.64;2584.84;4956494;28;45357;-87
2023/01/16 03:52:27;;;;;;;;;0.00;0.00;;;;;8.59;92.00;-185.75;4954424;28;45440;-88
2023/01/16 03:54:56;;;;;;;;;0.00;0.00;;;;;8.61;90.36;-7042.34;4945744;28;46329;-88
2023/01/16 03:57:50;;;;;;;;;0.00;0.00;;;;;8.33;89.44;-12238.44;4955878;28;45464;-87
2023/01/16 04:00:17;;;;;;;;;0.00;0.00;;;;;8.52;89.39;-11709.47;4926594;28;45501;-87
2023/01/16 04:02:59;;;;;;;;;0.00;0.00;;;;;8.12;89.33;-12152.75;4937112;28;45438;-87
2023/01/16 04:05:35;;;;;;;;;1.00;0.00;;;;;8.06;88.73;-14521.56;4936585;28;45417;-88
2023/01/16 04:08:09;;;;;;;;;1.33;0.00;;;;;8.34;88.71;-15981.13;4943581;28;45539;-87
2023/01/16 04:10:39;;;;;;;;;0.00;0.00;;;;;8.16;89.17;-13138.72;4956124;28;45509;-87
2023/01/16 04:13:09;;;;;;;;;0.00;0.00;;;;;7.95;87.68;-19040.22;4957379;28;45535;-87
2023/01/16 04:15:46;;;;;;;;;0.00;0.00;;;;;8.04;87.61;-19428.00;4941486;28;48319;-88
2023/01/16 04:18:11;;;;;;;;;0.00;0.00;;;;;8.36;87.31;-19436.53;4959376;28;45538;-87
2023/01/16 04:20:39;;;;;;;;;0.00;0.00;;;;;8.61;87.56;-19196.28;4947012;28;45498;-87
2023/01/16 04:23:04;;;;;;;;;0.00;0.00;;;;;8.43;87.06;-19438.41;4946929;28;45708;-88
2023/01/16 04:25:30;;;;;;;;;0.33;0.00;;;;;8.55;86.70;-19441.41;4939820;28;45572;-87
2023/01/16 04:27:55;;;;;;;;;1.00;0.00;;;;;8.68;86.35;-19444.78;4922432;28;46067;-88
2023/01/16 04:30:20;;;;;;;;;0.00;0.00;;;;;8.58;86.17;-19442.34;4940087;28;45505;-88
2023/01/16 04:32:46;;;;;;;;;0.00;0.00;;;;;7.97;85.87;-19426.09;4934302;28;45447;-88
2023/01/16 04:35:11;;;;;;;;;0.00;0.00;;;;;8.43;85.80;-19438.28;4943496;28;45928;-87
2023/01/16 04:37:37;;;;;;;;;1.00;0.00;;;;;8.65;85.19;-19444.09;4940297;28;45750;-88
2023/01/16 04:40:04;;;;;;;;;0.00;0.00;;;;;8.67;84.57;-19444.63;4929788;28;45501;-87
2023/01/16 04:42:29;;;;;;;;;0.00;0.00;;;;;8.29;84.04;-19434.63;4935740;28;45676;-87
2023/01/16 04:44:55;;;;;;;;;0.00;0.00;;;;;8.65;83.82;-19444.09;4939920;28;45923;-88
2023/01/16 04:47:20;;;;;;;;;0.00;0.00;;;;;8.68;83.96;-19444.78;4955127;28;45538;-87
2023/01/16 04:49:45;;;;;;;;;1.00;0.00;;;;;8.71;83.61;-19445.59;4949878;28;45424;-88
2023/01/16 04:52:14;;;;;;;;;3.00;0.00;;;;;8.48;82.74;-19439.50;4936196;28;45558;-87
2023/01/16 04:54:39;;;;;;;;;0.00;0.00;;;;;7.81;82.88;-19422.03;4944677;28;45414;-88
2023/01/16 04:57:05;;;;;;;;;1.00;0.00;;;;;8.49;82.78;-19439.78;4935405;28;46010;-88
2023/01/16 04:59:30;;;;;;;;;0.00;0.00;;;;;8.76;83.15;-19446.94;4956644;28;45530;-87
2023/01/16 05:01:56;;;;;;;;;0.00;0.00;;;;;8.67;83.49;-19444.63;4933362;28;45454;-87
2023/01/16 05:04:21;;;;;;;;;0.00;0.00;;;;;8.26;83.63;-19433.81;4922261;28;45498;-87
2023/01/16 05:06:47;;;;;;;;;1.00;0.00;;;;;8.67;84.50;-19444.63;4927454;28;45394;-87
2023/01/16 05:09:12;;;;;;;;;0.00;0.00;;;;;8.72;85.01;-19446.00;4947391;28;45441;-87
2023/01/16 05:11:38;;;;;;;;;0.00;0.00;;;;;8.34;84.51;-19435.97;4939876;28;45856;-87
2023/01/16 05:14:07;;;;;;;;;0.00;0.00;;;;;8.70;84.71;-19445.44;4957801;28;45490;-87
2023/01/16 05:16:37;;;;;;;;;0.00;0.00;;;;;8.77;84.83;-19447.34;4958523;28;45884;-87
2023/01/16 05:19:04;;;;;;;;;0.00;0.00;;;;;8.60;85.17;-19442.88;4954375;28;45471;-87
2023/01/16 05:21:29;;;;;;;;;0.00;0.00;;;;;8.00;85.70;-19427.06;4922992;28;45600;-87
2023/01/16 05:23:55;;;;;;;;;0.00;0.00;;;;;8.82;85.90;-19448.56;4944324;28;45448;-88
2023/01/16 05:26:20;;;;;;;;;0.00;0.00;;;;;8.24;86.42;-19433.28;4944454;28;45651;-87
2023/01/16 05:28:46;;;;;;;;;0.00;0.00;;;;;8.61;85.99;-19443.16;4930604;28;45753;-87
2023/01/16 05:31:11;;;;;;;;;0.00;0.00;;;;;8.09;86.51;-19429.34;4952970;28;45385;-87
2023/01/16 05:33:36;;;;;;;;;0.00;0.00;;;;;8.61;87.03;-19443.16;4958182;28;46106;-87
2023/01/16 05:36:02;;;;;;;;;0.00;0.00;;;;;9.02;86.62;-19453.81;4958275;28;45488;-87
2023/01/16 05:38:28;;;;;;;;;0.00;0.00;;;;;8.47;86.15;-19439.38;4953431;28;45350;-88
2023/01/16 05:40:53;;;;;;;;;0.00;0.00;;;;;8.41;85.86;-19437.88;4940096;28;45883;-87
2023/01/16 05:43:19;;;;;;;;;0.00;0.00;;;;;8.58;85.79;-19442.19;4951769;28;46549;-87
2023/01/16 05:45:44;;;;;;;;;0.00;0.00;;;;;9.13;85.29;-19456.81;4925591;28;45951;-87
2023/01/16 05:48:10;;;;;;;;;0.00;0.00;;;;;9.16;85.65;-19457.63;4940578;28;45493;-87
2023/01/16 05:50:35;;;;;;;;;0.00;0.00;;;;;8.57;85.70;-19441.94;4944098;28;45675;-87
2023/01/16 05:53:01;;;;;;;;;0.00;0.00;;;;;8.51;85.67;-19440.44;4920918;28;48464;-88
2023/01/16 05:55:26;;;;;;;;;0.00;0.00;;;;;8.68;85.79;-19444.78;4938579;28;45431;-87
2023/01/16 05:57:52;;;;;;;;;1.00;0.00;;;;;8.62;85.10;-19443.28;4939191;28;45488;-88
2023/01/16 06:00:17;;;;;;;;;0.00;0.00;;;;;8.16;84.96;-19431.25;4952914;28;45461;-87
2023/01/16 06:02:43;;;;;;;;;0.33;0.00;;;;;8.50;84.79;-19440.19;4956758;28;46254;-88
2023/01/16 06:05:09;;;;;;;;;0.00;0.00;;;;;9.20;85.25;-19458.69;4946083;28;45457;-87
2023/01/16 06:07:34;;;;;;;;;2.33;2.33;;;;;9.26;85.03;-19460.31;4942031;28;45452;-87
2023/01/16 06:10:00;;;;;;;;;2.00;0.00;;;;;9.09;85.01;-19455.72;4947880;28;45459;-87
2023/01/16 06:12:25;;;;;;;;;1.00;0.00;;;;;9.12;84.44;-19456.53;4937993;28;46647;-87
2023/01/16 06:14:51;;;;;;;;;2.00;0.00;;;;;8.82;84.29;-19448.56;4946341;28;45472;-87
2023/01/16 06:17:18;;;;;;;;;0.33;0.00;;;;;8.59;84.49;-19442.47;4938620;28;45453;-88
2023/01/16 06:19:44;;;;;;;;;0.33;0.00;;;;;9.27;83.93;-19460.44;4944947;28;45820;-88
2023/01/16 06:22:11;;;;;;;;;0.00;0.00;;;;;9.17;83.90;-19457.88;4938467;28;45921;-87
2023/01/16 06:24:36;;;;;;;;;0.00;0.00;;;;;9.16;83.82;-19457.63;4940936;28;45584;-87
2023/01/16 06:27:02;;;;;;;;;0.00;0.00;;;;;9.22;83.19;-19459.22;4927825;28;45399;-88
2023/01/16 06:29:27;;;;;;;;;0.00;0.00;;;;;8.91;83.51;-19450.84;4952230;28;45337;-87
2023/01/16 06:31:53;;;;;;;;;0.00;0.00;;;;;9.13;84.08;-19456.66;4954489;28;45556;-88
2023/01/16 06:34:18;;;;;;;;;4.00;0.00;;;;;9.24;83.25;-19459.78;4939355;28;45381;-87
2023/01/16 06:36:45;;;;;;;;;0.00;0.00;;;;;9.34;83.02;-19462.19;4951932;28;45432;-87
2023/01/16 06:39:11;;;;;;;;;0.00;0.00;;;;;9.07;83.34;-19455.19;4952838;28;45484;-87
2023/01/16 06:41:36;;;;;;;;;0.00;0.00;;;;;8.83;83.70;-19448.97;4948702;28;45527;-88
2023/01/16 06:44:02;;;;;;;;;0.00;0.00;;;;;9.39;83.10;-19463.69;4939435;28;45456;-87
2023/01/16 06:46:27;;;;;;;;;0.00;0.00;;;;;9.31;83.08;-19461.53;4947934;28;45433;-87
2023/01/16 06:48:52;;;;;;;;;0.00;0.00;;;;;8.82;82.67;-19448.69;4940155;28;45363;-87
2023/01/16 06:51:18;;;;;;;;;0.00;0.00;;;;;9.48;83.27;-19465.97;4948171;28;45979;-88
2023/01/16 06:53:43;;;;;;;;;0.00;0.00;;;;;9.41;82.40;-19464.22;4942750;28;45754;-89
2023/01/16 06:56:08;;;;;;;;;0.00;0.00;;;;;9.11;82.09;-19456.25;4935596;28;46053;-90
2023/01/16 06:58:34;;;;;;;;;1.00;0.00;;;;;8.74;82.66;-19446.41;4928127;28;45524;-91
2023/01/16 07:00:59;;;;;;;;;0.00;0.00;;;;;8.55;82.33;-19441.41;4943511;28;46198;-90
2023/01/16 07:03:25;;;;;;;;;0.00;0.00;;;;;8.75;82.51;-19446.66;4939314;28;45442;-92
2023/01/16 07:05:50;;;;;;;;;2.00;0.00;;;;;8.58;81.97;-19442.34;4922531;28;45457;-92
2023/01/16 07:08:16;;;;;;;;;0.00;0.00;;;;;8.87;82.03;-19450.03;4930277;28;45806;-92
2023/01/16 07:10:41;;;;;;;;;2.00;0.00;;;;;9.23;81.84;-19459.50;4950725;28;45455;-91
2023/01/16 07:13:07;;;;;;;;;0.00;0.00;;;;;9.23;81.80;-19459.50;4939402;28;45925;-91
2023/01/16 07:24:10;;;;;;;;;0.67;0.00;;;;;9.06;81.58;-19455.03;4950090;28;45377;-90
2023/01/16 07:26:38;;;;;;;;;0.00;0.00;;;;;8.99;81.20;-19453.16;4934606;28;45508;-89
2023/01/16 07:29:04;;;;;;;;;0.00;0.00;;;;;9.08;81.20;-19455.44;4947052;28;45344;-92
2023/01/16 07:31:32;;;;;;;;;0.67;0.00;;;;;9.04;81.85;-19454.38;4933173;28;46259;-92
2023/01/16 07:33:57;;;;;;;;;0.00;0.00;;;;;9.09;81.60;-19455.72;4930996;28;45728;-90
2023/01/16 07:36:23;;;;;;;;;0.00;0.00;;;;;7.95;81.46;-19425.56;4946141;28;45636;-88
2023/01/16 07:38:48;;;;;;;;;0.00;0.00;;;;;9.22;80.90;-19459.09;4923698;28;45492;-88
2023/01/16 07:41:14;;;;;;;;;0.00;0.00;;;;;8.29;81.39;-19434.63;4938349;28;47237;-87
2023/01/16 07:43:39;;;;;;;;;0.00;0.00;;;;;8.74;81.98;-19446.53;4952584;28;45543;-89
2023/01/16 07:46:05;;;;;;;;;0.00;0.00;;;;;8.30;81.53;-19434.91;4941103;28;45319;-89
2023/01/16 07:48:30;;;;;;;;;0.33;0.00;;;;;8.10;82.32;-19429.63;4932544;28;45817;-89
2023/01/16 07:50:58;;;;;;;;;3.00;0.00;;;;;8.97;82.16;-19452.47;4947859;28;46211;-88
2023/01/16 07:56:11;;;;;;;;;0.00;0.00;;;;;9.14;82.18;-19457.06;4988621;28;45400;-90
2023/01/16 07:58:37;;;;;;;;;0.00;0.00;;;;;9.11;82.36;-19456.13;4967379;28;45577;-90
2023/01/16 08:01:05;;;;;;;;;0.00;0.00;;;;;9.11;82.58;-19456.25;4959856;28;45807;-90
2023/01/16 08:03:31;;;;;;;;;1.00;0.00;;;;;9.14;82.35;-19456.94;4970891;28;45505;-89
2023/01/16 08:05:57;;;;;;;;;0.00;0.00;;;;;9.35;82.09;-19462.59;4968730;28;45515;-89
2023/01/16 08:08:25;;;;;;;;;0.00;0.00;;;;;8.54;82.80;-19441.13;4969277;28;45452;-89
2023/01/16 08:10:53;;;;;;;;;0.00;0.00;;;;;8.92;82.71;-19451.25;4963720;28;45373;-89
2023/01/16 08:13:19;;;;;;;;;0.00;0.00;;;;;8.79;82.53;-19447.75;4969214;28;45556;-89
2023/01/16 08:15:44;;;;;;;;;0.00;0.00;;;;;9.35;82.23;-19462.59;4970444;28;45429;-89
2023/01/16 08:18:10;;;;;;;;;0.00;0.00;;;;;7.97;82.73;-19426.25;4967820;28;45444;-88
2023/01/16 08:20:36;;;;;;;;;0.00;0.00;;;;;9.09;82.14;-19455.72;4969118;28;45538;-89
2023/01/16 08:23:01;;;;;;;;;0.00;0.00;;;;;8.87;82.41;-19450.03;4968524;27;45476;-89
2023/01/16 08:25:26;;;;;;;;;0.00;0.00;;;;;8.65;82.20;-19444.09;4968490;28;46562;-89
2023/01/16 08:27:52;;;;;;;;;0.00;0.00;;;;;8.80;82.22;-19448.00;4968068;28;45366;-89
2023/01/16 08:30:18;;;;;;;;;1.00;0.00;;;;;9.44;82.01;-19464.91;4969393;28;45500;-89
2023/01/16 08:32:43;;;;;;;;;0.00;0.00;;;;;9.39;81.25;-19463.69;4967409;28;45521;-88
2023/01/16 08:35:09;;;;;;;;;0.00;0.00;;;;;9.38;81.86;-19463.28;4981955;28;45539;-91
2023/01/16 08:37:35;;;;;;;;;0.00;0.00;;;;;9.36;81.33;-19462.88;4976251;28;45510;-88
2023/01/16 08:40:01;;;;;;;;;0.00;0.00;;;;;8.73;81.32;-19446.13;4977753;28;45498;-91
2023/01/16 08:53:27;;;;;;;;;0.00;0.00;;;;;9.02;79.02;-19453.97;4969012;28;45435;-90
2023/01/16 08:55:52;;;;;;;;;0.00;0.00;;;;;8.84;78.46;-19449.22;4987046;28;46573;-92
2023/01/16 08:58:20;;;;;;;;;0.00;0.00;;;;;8.78;78.93;-19447.47;4989243;28;45411;-90
2023/01/16 09:00:46;;;;;;;;;0.00;0.00;;;;;8.47;78.16;-19439.22;4978900;28;45534;-90
2023/01/16 09:03:12;;;;;;;;;0.00;0.00;;;;;8.59;78.99;-19442.47;5006417;28;45413;-90
2023/01/16 09:05:37;;;;;;;;;0.00;0.00;;;;;8.83;78.99;-19448.81;4985097;28;45976;-90
2023/01/16 09:08:03;;;;;;;;;0.00;0.00;;;;;8.52;79.14;-19440.59;4974916;28;45526;-89
2023/01/16 09:10:29;;;;;;;;;0.00;0.00;;;;;8.21;78.76;-19432.59;4975357;28;45861;-89
2023/01/16 09:15:38;;;;;;;;;0.00;0.00;;;;;8.26;79.19;-19433.81;4974053;28;45418;-90
2023/01/16 09:18:04;;;;;;;;;0.00;0.00;;;;;7.91;78.93;-19424.63;4975253;28;45442;-90
2023/01/16 09:20:29;;;;;;;;;0.00;0.00;;;;;8.50;79.40;-19440.19;4963409;28;45455;-89
2023/01/16 09:22:59;;;;;;;;;0.00;0.00;;;;;7.87;79.82;-19423.41;4975150;28;45410;-88
2023/01/16 09:25:25;;;;;;;;;0.00;0.00;;;;;8.42;80.34;-19438.16;4957265;28;47385;-89
2023/01/16 09:27:50;;;;;;;;;0.00;0.00;;;;;8.61;80.76;-19443.16;4975115;28;45462;-89
2023/01/16 09:30:16;;;;;;;;;0.00;0.00;;;;;8.65;79.90;-19444.22;4975273;28;45503;-89
2023/01/16 09:32:44;;;;;;;;;0.00;0.00;;;;;8.60;80.47;-19442.75;4975137;28;45437;-90
2023/01/16 09:35:10;;;;;;;;;0.00;0.00;;;;;8.21;80.67;-19432.59;4970649;28;47102;-89
2023/01/16 09:37:35;;;;;;;;;0.00;0.00;;;;;8.61;81.13;-19443.16;4975064;28;45453;-85
2023/01/16 09:40:00;;;;;;;;;0.00;0.00;;;;;8.34;81.01;-19435.97;4974164;28;45644;-85
2023/01/16 09:45:33;;;;;;;;;0.00;0.00;;;;;8.82;80.34;-19448.56;4955179;28;45546;-85
2023/01/16 09:48:04;;;;;;;;;0.00;0.00;;;;;8.59;81.00;-19442.47;4967634;28;45486;-86
2023/01/16 09:50:37;;;;;;;;;0.00;0.00;;;;;8.95;80.45;-19452.06;4974418;28;45500;-86
2023/01/16 09:58:55;;;;;;;;;0.00;0.00;;;;;9.07;81.04;-19455.19;4974168;28;45675;-85
2023/01/16 10:01:28;;;;;;;;;0.00;0.00;;;;;8.69;81.17;-19445.19;4974109;28;45643;-85
2023/01/16 10:04:12;;;;;;;;;0.00;0.00;;;;;9.32;81.41;-19461.81;4974022;28;45418;-85
2023/01/16 10:07:02;;;;;;;;;0.33;0.33;;;;;9.05;81.43;-19454.78;4973885;28;45481;-85
2023/01/16 10:09:44;;;;;;;;;1.00;1.00;;;;;9.12;81.22;-19456.53;4973749;28;45431;-85
2023/01/16 10:12:12;;;;;;;;;1.00;1.00;;;;;9.45;81.01;-19465.19;4974452;28;45501;-85
2023/01/16 10:15:12;;;;;;;;;0.00;0.00;;;;;8.84;80.87;-19449.09;4967297;28;45516;-86
2023/01/16 10:17:56;;;;;;;;;0.00;0.00;;;;;9.52;81.05;-19467.06;4953649;28;46280;-85
2023/01/16 10:20:24;;;;;;;;;1.00;0.00;;;;;9.48;81.21;-19466.13;4951782;28;45706;-85
2023/01/16 10:23:11;;;;;;;;;1.00;1.00;;;;;9.44;81.51;-19464.91;4956230;28;45467;-85
2023/01/16 10:25:44;;;;;;;;;0.00;0.00;;;;;9.39;82.23;-19463.56;4974662;28;45511;-86
2023/01/16 10:28:54;;;;;;;;;0.33;0.33;;;;;9.29;82.42;-19461.13;4973841;28;45557;-86
2023/01/16 10:31:26;;;;;;;;;2.67;1.00;;;;;9.37;82.46;-19463.16;5013365;28;45646;-85
2023/01/16 10:34:01;;;;;;;;;1.00;1.00;;;;;8.97;82.23;-19452.63;5014180;28;45478;-86
2023/01/16 10:36:42;;;;;;;;;1.33;1.33;;;;;9.35;81.94;-19462.59;5014100;28;45541;-85
2023/01/16 10:39:11;;;;;;;;;0.67;0.00;;;;;8.42;81.62;-19438.00;5014302;28;46589;-85
2023/01/16 10:50:13;;;;;;;;;0.00;0.00;;;;;8.95;79.56;-19452.06;5020087;28;45868;-86
2023/01/16 10:52:39;;;;;;;;;0.33;0.00;;;;;8.94;79.42;-19451.66;5007161;28;45424;-85
2023/01/16 10:55:06;;;;;;;;;0.00;0.00;;;;;9.30;80.05;-19461.41;4996988;28;45651;-86
2023/01/16 10:57:33;;;;;;;;;0.00;0.00;;;;;8.25;79.14;-19433.53;5014338;28;45714;-86
2023/01/16 11:00:06;;;;;;;;;0.00;0.00;;;;;8.77;79.45;-19447.22;5013082;28;48470;-85
2023/01/16 11:02:40;;;;;;;;;0.00;0.00;;;;;9.24;79.82;-19459.78;5013369;28;45734;-85
2023/01/16 11:05:24;;;;;;;;;0.00;0.00;;;;;9.28;79.79;-19460.72;5013194;28;45585;-86
2023/01/16 11:07:53;;;;;;;;;0.00;0.00;;;;;7.98;79.68;-19426.38;4994174;28;45502;-85
2023/01/16 11:10:18;;;;;;;;;1.00;0.00;;;;;8.58;80.17;-19442.19;4973453;28;46630;-85
2023/01/16 11:18:29;;;;;;;;;0.00;0.00;;;;;8.89;80.27;-19450.44;4973398;28;45409;-85
2023/01/16 11:21:14;;;;;;;;;0.00;0.00;;;;;8.43;80.49;-19438.28;4976594;28;46558;-85
2023/01/16 11:23:42;;;;;;;;;0.00;0.00;;;;;8.86;80.90;-19449.78;4966534;28;45492;-85
2023/01/16 11:26:10;;;;;;;;;0.00;0.00;;;;;8.81;81.17;-19448.28;4973699;28;45581;-86
2023/01/16 11:28:36;;;;;;;;;0.00;0.00;;;;;8.92;81.34;-19451.25;4973309;28;45455;-85
2023/01/16 11:31:12;;;;;;;;;0.67;0.67;;;;;8.58;81.15;-19442.19;4973326;28;45683;-85
2023/01/16 11:33:43;;;;;;;;;0.00;0.00;;;;;9.32;81.35;-19461.66;4974260;28;45782;-86
2023/01/16 11:36:09;;;;;;;;;0.00;0.00;;;;;9.32;81.04;-19461.81;4983202;28;45527;-84
2023/01/16 11:38:38;;;;;;;;;2.00;2.00;;;;;8.64;80.88;-19443.81;4987711;28;45467;-85
2023/01/16 11:41:08;;;;;;;;;4.67;3.67;;;;;7.92;81.06;-19424.75;4984081;28;45633;-85
2023/01/16 11:46:38;;;;;;;;;2.00;0.00;;;;;9.23;81.43;-19459.50;4971439;28;45835;-86
2023/01/16 11:49:15;;;;;;;;;1.00;1.00;;;;;9.49;81.09;-19466.38;4959081;28;45919;-85
2023/01/16 11:51:41;;;;;;;;;1.00;1.00;;;;;9.02;80.92;-19453.81;4983898;28;46315;-85
2023/01/16 11:54:18;;;;;;;;;2.00;0.00;;;;;8.81;80.70;-19448.28;4989639;28;45376;-85
2023/01/16 11:56:50;;;;;;;;;0.00;0.00;;;;;9.53;80.77;-19467.34;4987650;28;45387;-85
2023/01/16 11:59:29;;;;;;;;;0.00;0.00;;;;;9.30;80.43;-19461.25;4978959;28;45501;-85
2023/01/16 12:02:23;;;;;;;;;0.00;0.00;;;;;9.50;79.85;-19466.53;4959984;28;48160;-86
2023/01/16 12:07:45;;;;;;;;;0.00;0.00;;;;;9.09;79.45;-19455.84;4989083;28;45577;-85
2023/01/16 12:10:32;;;;;;;;;0.00;0.00;;;;;8.95;79.73;-19452.06;4964380;28;45362;-85
2023/01/16 12:15:49;;;;;;;;;0.00;0.00;;;;;9.73;78.69;-19472.59;4960327;28;45404;-85
2023/01/16 12:18:50;;;;;;;;;0.00;0.00;;;;;9.76;79.12;-19473.41;4954513;28;45536;-85
2023/01/16 12:21:41;;;;;;;;;0.00;0.00;;;;;9.71;78.90;-19472.06;4972220;28;45363;-85
2023/01/16 12:24:44;;;;;;;;;0.67;0.00;;;;;9.79;79.13;-19474.22;4972656;28;45571;-85
2023/01/16 12:27:37;;;;;;;;;0.00;0.00;;;;;9.78;78.80;-19473.94;4973586;28;46425;-85
2023/01/16 12:30:24;;;;;;;;;0.00;0.00;;;;;9.74;78.85;-19472.88;4991166;28;45356;-85
2023/01/16 12:36:02;;;;;;;;;0.00;0.00;;;;;9.64;78.94;-19470.31;4991953;28;45959;-85
2023/01/16 12:38:41;;;;;;;;;0.00;0.00;;;;;9.76;78.84;-19473.41;4992539;28;45415;-85
2023/01/16 12:43:58;;;;;;;;;1.00;1.00;;;;;9.73;79.53;-19472.72;4996425;28;45584;-85
2023/01/16 12:47:09;;;;;;;;;2.67;2.00;;;;;9.72;79.57;-19472.47;4978538;28;48596;-85
2023/01/16 12:49:43;;;;;;;;;2.00;1.00;;;;;9.69;78.83;-19471.66;4956234;28;45674;-84
2023/01/16 12:52:46;;;;;;;;;1.33;1.00;;;;;9.63;78.77;-19470.03;4956805;28;45782;-85
2023/01/16 12:55:22;;;;;;;;;1.00;1.00;;;;;9.64;79.70;-19470.16;4955747;28;45662;-85